createdAt,value
2018-08-18T00:00:11.723Z,72.65
2018-08-18T00:01:11.650Z,72.94
2018-08-18T00:02:32.562Z,72.55
2018-08-18T00:03:11.509Z,72.36
2018-08-18T00:04:11.437Z,72.36
2018-08-18T00:05:11.448Z,72.36
2018-08-18T00:06:11.292Z,72.36
2018-08-18T00:07:11.219Z,72.65
2018-08-18T00:08:32.136Z,72.68
2018-08-18T00:09:11.080Z,72.36
2018-08-18T00:10:11.007Z,72.39
2018-08-18T00:11:10.932Z,72.36
2018-08-18T00:12:10.866Z,72.84
2018-08-18T00:13:10.795Z,72.94
2018-08-18T00:14:31.702Z,73.16
2018-08-18T00:15:10.660Z,72.88
2018-08-18T00:16:10.577Z,72.94
2018-08-18T00:17:10.505Z,72.84
2018-08-18T00:18:10.435Z,73.22
2018-08-18T00:19:10.362Z,72.45
2018-08-18T00:20:31.420Z,73.42
2018-08-18T00:21:10.222Z,72.84
2018-08-18T00:22:10.146Z,72.74
2018-08-18T00:23:10.080Z,73.16
2018-08-18T00:24:10.021Z,73.22
2018-08-18T00:25:09.937Z,73.42
2018-08-18T00:26:30.848Z,73.22
2018-08-18T00:27:09.794Z,73.32
2018-08-18T00:28:09.727Z,73.90
2018-08-18T00:29:09.649Z,74.22
2018-08-18T00:30:09.579Z,74.03
2018-08-18T00:31:09.508Z,74.22
2018-08-18T00:32:30.424Z,74.22
2018-08-18T00:33:09.437Z,74.38
2018-08-18T00:34:09.540Z,74.32
2018-08-18T00:35:09.221Z,74.22
2018-08-18T00:36:09.146Z,74.29
2018-08-18T00:37:09.074Z,74.29
2018-08-18T00:38:29.984Z,74.29
2018-08-18T00:39:08.933Z,74.80
2018-08-18T00:40:08.862Z,74.57
2018-08-18T00:41:08.793Z,74.48
2018-08-18T00:42:08.721Z,74.67
2018-08-18T00:43:08.654Z,74.96
2018-08-18T00:44:29.557Z,74.86
2018-08-18T00:45:08.503Z,75.05
2018-08-18T00:46:08.431Z,75.34
2018-08-18T00:47:08.366Z,75.44
2018-08-18T00:48:08.292Z,75.34
2018-08-18T00:49:08.266Z,75.44
2018-08-18T00:50:29.126Z,75.44
2018-08-18T00:51:08.074Z,75.54
2018-08-18T00:52:07.999Z,75.82
2018-08-18T00:53:07.933Z,75.54
2018-08-18T00:54:07.860Z,76.01
2018-08-18T00:55:07.792Z,75.54
2018-08-18T00:56:28.710Z,75.73
2018-08-18T00:57:07.642Z,75.73
2018-08-18T00:58:07.573Z,75.82
2018-08-18T00:59:07.498Z,76.01
2018-08-18T01:00:07.432Z,76.11
2018-08-18T01:01:07.348Z,76.11
2018-08-18T01:02:28.265Z,75.73
2018-08-18T01:03:07.205Z,75.82
2018-08-18T01:04:07.133Z,76.21
2018-08-18T01:05:07.072Z,76.21
2018-08-18T01:06:06.988Z,75.92
2018-08-18T01:07:06.931Z,76.21
2018-08-18T01:08:27.832Z,76.15
2018-08-18T01:09:06.780Z,76.11
2018-08-18T01:10:06.702Z,76.40
2018-08-18T01:11:06.764Z,76.25
2018-08-18T01:12:06.693Z,76.40
2018-08-18T01:13:06.547Z,76.59
2018-08-18T01:14:27.557Z,76.59
2018-08-18T01:15:06.418Z,76.44
2018-08-18T01:16:06.277Z,76.40
2018-08-18T01:17:06.212Z,77.08
2018-08-18T01:18:06.128Z,76.98
2018-08-18T01:19:06.072Z,76.69
2018-08-18T01:20:26.971Z,76.88
2018-08-18T01:21:05.926Z,77.26
2018-08-18T01:22:05.844Z,76.78
2018-08-18T01:23:05.783Z,77.26
2018-08-18T01:24:05.708Z,77.65
2018-08-18T01:25:05.635Z,77.75
2018-08-18T01:26:26.538Z,77.65
2018-08-18T01:27:05.500Z,77.65
2018-08-18T01:28:05.418Z,77.17
2018-08-18T01:29:05.350Z,77.46
2018-08-18T01:30:05.268Z,77.94
2018-08-18T01:31:05.213Z,77.65
2018-08-18T01:32:26.118Z,78.03
2018-08-18T01:33:05.061Z,78.33
2018-08-18T01:34:04.983Z,78.52
2018-08-18T01:35:04.917Z,78.52
2018-08-18T01:36:04.836Z,78.52
2018-08-18T01:37:04.778Z,78.52
2018-08-18T01:38:25.678Z,78.33
2018-08-18T01:39:04.673Z,78.71
2018-08-18T01:40:04.553Z,78.33
2018-08-18T01:41:04.486Z,78.23
2018-08-18T01:42:04.409Z,78.67
2018-08-18T01:43:04.355Z,79.05
2018-08-18T01:44:25.248Z,78.81
2018-08-18T01:45:04.211Z,79.15
2018-08-18T01:46:04.116Z,79.15
2018-08-18T01:47:04.055Z,79.15
2018-08-18T01:48:03.980Z,79.15
2018-08-18T01:49:03.917Z,79.05
2018-08-18T01:50:24.826Z,79.44
2018-08-18T01:51:03.770Z,79.15
2018-08-18T01:52:03.687Z,79.35
2018-08-18T01:53:03.629Z,79.63
2018-08-18T01:54:03.542Z,79.53
2018-08-18T01:55:03.482Z,79.73
2018-08-18T01:56:24.389Z,80.02
2018-08-18T01:57:03.337Z,80.50
2018-08-18T01:58:03.262Z,80.60
2018-08-18T01:59:03.196Z,80.88
2018-08-18T02:00:03.115Z,80.40
2018-08-18T02:01:03.052Z,80.50
2018-08-18T02:02:23.953Z,80.98
2018-08-18T02:03:02.907Z,80.79
2018-08-18T02:04:02.827Z,80.60
2018-08-18T02:05:02.763Z,80.79
2018-08-18T02:06:02.685Z,81.37
2018-08-18T02:07:02.621Z,81.37
2018-08-18T02:08:23.530Z,81.23
2018-08-18T02:09:02.474Z,81.27
2018-08-18T02:10:02.399Z,81.23
2018-08-18T02:11:02.331Z,81.46
2018-08-18T02:12:02.250Z,81.23
2018-08-18T02:13:02.187Z,81.23
2018-08-18T02:14:23.088Z,81.61
2018-08-18T02:15:02.041Z,81.61
2018-08-18T02:16:01.963Z,81.81
2018-08-18T02:17:01.898Z,81.52
2018-08-18T02:18:01.821Z,82.09
2018-08-18T02:19:01.758Z,81.32
2018-08-18T02:20:22.662Z,81.23
2018-08-18T02:21:01.608Z,81.42
2018-08-18T02:22:01.530Z,81.90
2018-08-18T02:23:01.466Z,81.90
2018-08-18T02:24:01.389Z,81.81
2018-08-18T02:25:01.323Z,82.48
2018-08-18T02:26:22.224Z,82.48
2018-08-18T02:27:01.179Z,82.29
2018-08-18T02:28:01.102Z,82.09
2018-08-18T02:29:01.036Z,82.29
2018-08-18T02:30:00.953Z,82.96
2018-08-18T02:31:00.894Z,82.38
2018-08-18T02:32:21.796Z,82.96
2018-08-18T02:33:00.747Z,83.06
2018-08-18T02:34:00.663Z,82.73
2018-08-18T02:35:00.601Z,82.48
2018-08-18T02:36:00.521Z,82.24
2018-08-18T02:37:00.456Z,82.63
2018-08-18T02:38:21.357Z,82.43
2018-08-18T02:39:00.312Z,82.43
2018-08-18T02:40:00.258Z,82.34
2018-08-18T02:41:00.169Z,82.63
2018-08-18T02:42:00.088Z,83.20
2018-08-18T02:43:00.021Z,82.63
2018-08-18T02:44:20.927Z,83.20
2018-08-18T02:44:59.881Z,83.01
2018-08-18T02:45:59.798Z,83.40
2018-08-18T02:46:59.732Z,83.20
2018-08-18T02:47:59.653Z,83.97
2018-08-18T02:48:59.590Z,83.87
2018-08-18T02:50:20.492Z,83.11
2018-08-18T02:50:59.444Z,84.07
2018-08-18T02:51:59.364Z,83.78
2018-08-18T02:52:59.300Z,84.36
2018-08-18T02:53:59.220Z,84.07
2018-08-18T02:54:59.161Z,83.97
2018-08-18T02:56:20.059Z,84.07
2018-08-18T02:56:59.017Z,83.87
2018-08-18T02:57:58.928Z,83.59
2018-08-18T02:58:58.867Z,83.69
2018-08-18T02:59:58.787Z,84.17
2018-08-18T03:00:58.738Z,84.26
2018-08-18T03:02:19.621Z,84.60
2018-08-18T03:02:58.578Z,85.08
2018-08-18T03:03:58.496Z,85.08
2018-08-18T03:04:58.436Z,84.99
2018-08-18T03:05:58.351Z,85.52
2018-08-18T03:06:58.286Z,86.00
2018-08-18T03:08:19.192Z,86.38
2018-08-18T03:08:58.142Z,87.05
2018-08-18T03:09:58.063Z,87.82
2018-08-18T03:10:57.998Z,88.02
2018-08-18T03:11:57.917Z,88.02
2018-08-18T03:12:57.864Z,87.92
2018-08-18T03:14:18.751Z,87.92
2018-08-18T03:14:57.708Z,88.49
2018-08-18T03:15:57.633Z,88.11
2018-08-18T03:16:57.562Z,88.25
2018-08-18T03:17:57.479Z,88.16
2018-08-18T03:18:57.424Z,88.73
2018-08-18T03:20:18.321Z,88.83
2018-08-18T03:20:57.269Z,88.73
2018-08-18T03:21:57.186Z,88.54
2018-08-18T03:22:57.123Z,88.73
2018-08-18T03:23:57.047Z,89.02
2018-08-18T03:24:56.981Z,88.93
2018-08-18T03:26:17.881Z,89.31
2018-08-18T03:26:56.834Z,89.12
2018-08-18T03:27:56.752Z,89.45
2018-08-18T03:28:56.757Z,89.64
2018-08-18T03:29:56.606Z,89.74
2018-08-18T03:30:56.546Z,89.83
2018-08-18T03:32:17.462Z,89.83
2018-08-18T03:32:56.397Z,89.74
2018-08-18T03:33:56.316Z,89.64
2018-08-18T03:34:56.253Z,88.87
2018-08-18T03:35:56.167Z,89.16
2018-08-18T03:36:56.108Z,89.07
2018-08-18T03:38:17.006Z,89.36
2018-08-18T03:38:55.965Z,88.68
2018-08-18T03:39:55.883Z,88.78
2018-08-18T03:40:55.815Z,88.59
2018-08-18T03:41:55.735Z,88.97
2018-08-18T03:42:55.671Z,88.30
2018-08-18T03:44:16.575Z,88.20
2018-08-18T03:44:55.528Z,88.68
2018-08-18T03:45:55.443Z,88.78
2018-08-18T03:46:55.381Z,88.78
2018-08-18T03:47:55.307Z,89.26
2018-08-18T03:48:55.233Z,89.16
2018-08-18T03:50:16.137Z,89.36
2018-08-18T03:50:55.087Z,88.97
2018-08-18T03:51:55.015Z,89.54
2018-08-18T03:52:54.949Z,89.26
2018-08-18T03:53:54.866Z,89.07
2018-08-18T03:54:54.805Z,89.83
2018-08-18T03:56:15.700Z,89.45
2018-08-18T03:56:54.654Z,89.30
2018-08-18T03:57:54.579Z,89.16
2018-08-18T03:58:54.504Z,89.30
2018-08-18T03:59:54.429Z,89.50
2018-08-18T04:00:54.361Z,89.01
2018-08-18T04:02:15.271Z,89.69
2018-08-18T04:02:54.217Z,89.40
2018-08-18T04:03:54.139Z,89.11
2018-08-18T04:04:54.071Z,89.30
2018-08-18T04:05:53.995Z,89.11
2018-08-18T04:06:53.934Z,88.82
2018-08-18T04:08:14.833Z,89.11
2018-08-18T04:08:53.785Z,89.21
2018-08-18T04:09:53.704Z,89.11
2018-08-18T04:10:53.637Z,89.30
2018-08-18T04:11:53.557Z,89.11
2018-08-18T04:12:53.492Z,89.01
2018-08-18T04:14:14.407Z,89.69
2018-08-18T04:14:53.349Z,89.50
2018-08-18T04:15:53.269Z,89.69
2018-08-18T04:16:53.209Z,89.98
2018-08-18T04:17:53.122Z,89.78
2018-08-18T04:18:53.100Z,89.50
2018-08-18T04:20:13.956Z,89.40
2018-08-18T04:20:52.911Z,88.92
2018-08-18T04:21:52.833Z,89.30
2018-08-18T04:22:52.767Z,89.78
2018-08-18T04:23:52.689Z,90.07
2018-08-18T04:24:52.622Z,89.69
2018-08-18T04:26:13.542Z,90.26
2018-08-18T04:26:52.486Z,90.36
2018-08-18T04:27:52.399Z,90.26
2018-08-18T04:28:52.333Z,90.45
2018-08-18T04:29:52.251Z,91.03
2018-08-18T04:30:52.189Z,90.75
2018-08-18T04:32:13.093Z,90.65
2018-08-18T04:32:52.054Z,90.55
2018-08-18T04:33:51.960Z,90.65
2018-08-18T04:34:51.895Z,90.45
2018-08-18T04:35:51.817Z,90.65
2018-08-18T04:36:51.758Z,90.84
2018-08-18T04:38:12.656Z,90.65
2018-08-18T04:38:51.606Z,90.84
2018-08-18T04:39:51.530Z,90.84
2018-08-18T04:40:51.467Z,91.61
2018-08-18T04:41:51.378Z,90.94
2018-08-18T04:42:51.316Z,90.55
2018-08-18T04:44:12.221Z,90.65
2018-08-18T04:44:51.174Z,90.65
2018-08-18T04:45:51.090Z,90.65
2018-08-18T04:46:51.025Z,90.55
2018-08-18T04:47:50.951Z,90.94
2018-08-18T04:48:50.881Z,90.75
2018-08-18T04:50:11.783Z,90.84
2018-08-18T04:50:50.744Z,90.94
2018-08-18T04:51:50.654Z,90.65
2018-08-18T04:52:50.595Z,90.75
2018-08-18T04:53:50.511Z,91.13
2018-08-18T04:54:50.450Z,91.13
2018-08-18T04:56:11.352Z,91.13
2018-08-18T04:56:50.329Z,91.13
2018-08-18T04:57:50.218Z,91.13
2018-08-18T04:58:50.159Z,91.61
2018-08-18T04:59:50.075Z,90.94
2018-08-18T05:00:50.019Z,92.09
2018-08-18T05:02:10.916Z,91.99
2018-08-18T05:02:49.869Z,91.80
2018-08-18T05:03:49.790Z,91.42
2018-08-18T05:04:49.731Z,91.42
2018-08-18T05:05:49.645Z,91.52
2018-08-18T05:06:49.617Z,91.61
2018-08-18T05:08:10.484Z,91.61
2018-08-18T05:08:49.518Z,91.71
2018-08-18T05:09:49.352Z,91.42
2018-08-18T05:10:49.293Z,91.42
2018-08-18T05:11:49.206Z,91.61
2018-08-18T05:12:49.147Z,91.42
2018-08-18T05:14:10.047Z,91.71
2018-08-18T05:14:49.005Z,91.99
2018-08-18T05:15:48.920Z,91.52
2018-08-18T05:16:48.854Z,91.52
2018-08-18T05:17:48.775Z,91.99
2018-08-18T05:18:48.746Z,92.57
2018-08-18T05:20:09.615Z,92.76
2018-08-18T05:20:48.567Z,92.86
2018-08-18T05:21:48.483Z,92.96
2018-08-18T05:22:48.419Z,92.86
2018-08-18T05:23:48.341Z,93.53
2018-08-18T05:24:48.274Z,93.82
2018-08-18T05:26:09.175Z,94.11
2018-08-18T05:26:48.135Z,94.11
2018-08-18T05:27:48.052Z,94.68
2018-08-18T05:28:47.983Z,94.78
2018-08-18T05:29:47.902Z,94.40
2018-08-18T05:30:47.837Z,94.59
2018-08-18T05:32:08.750Z,95.36
2018-08-18T05:32:47.696Z,95.07
2018-08-18T05:33:47.623Z,94.30
2018-08-18T05:34:47.548Z,94.11
2018-08-18T05:35:47.466Z,93.53
2018-08-18T05:36:47.408Z,93.91
2018-08-18T05:38:08.305Z,93.05
2018-08-18T05:38:47.260Z,93.29
2018-08-18T05:39:47.178Z,92.52
2018-08-18T05:40:47.118Z,92.71
2018-08-18T05:41:47.036Z,92.71
2018-08-18T05:42:46.973Z,92.61
2018-08-18T05:44:07.873Z,92.23
2018-08-18T05:44:46.826Z,92.04
2018-08-18T05:45:46.742Z,91.75
2018-08-18T05:46:46.681Z,91.46
2018-08-18T05:47:46.601Z,91.46
2018-08-18T05:48:46.548Z,91.56
2018-08-18T05:50:07.439Z,90.89
2018-08-18T05:50:46.393Z,91.17
2018-08-18T05:51:46.313Z,91.17
2018-08-18T05:52:46.245Z,90.98
2018-08-18T05:53:46.175Z,91.36
2018-08-18T05:54:46.107Z,90.69
2018-08-18T05:56:07.007Z,90.98
2018-08-18T05:56:45.957Z,90.35
2018-08-18T05:57:45.877Z,91.31
2018-08-18T05:58:45.813Z,91.41
2018-08-18T05:59:45.809Z,91.51
2018-08-18T06:00:45.668Z,90.93
2018-08-18T06:02:06.578Z,91.60
2018-08-18T06:02:45.526Z,90.93
2018-08-18T06:03:45.452Z,90.73
2018-08-18T06:04:45.385Z,90.26
2018-08-18T06:05:45.370Z,89.97
2018-08-18T06:06:45.237Z,89.97
2018-08-18T06:08:06.142Z,89.87
2018-08-18T06:08:45.090Z,89.97
2018-08-18T06:09:45.088Z,89.58
2018-08-18T06:10:44.938Z,89.97
2018-08-18T06:11:44.872Z,89.68
2018-08-18T06:12:44.809Z,89.49
2018-08-18T06:14:05.714Z,89.01
2018-08-18T06:14:44.714Z,88.53
2018-08-18T06:15:44.585Z,88.53
2018-08-18T06:16:44.639Z,88.71
2018-08-18T06:17:44.430Z,88.43
2018-08-18T06:18:44.373Z,88.91
2018-08-18T06:20:05.283Z,89.10
2018-08-18T06:20:44.243Z,90.16
2018-08-18T06:21:44.151Z,89.78
2018-08-18T06:22:44.159Z,89.97
2018-08-18T06:23:44.002Z,89.49
2018-08-18T06:24:43.934Z,89.20
2018-08-18T06:26:04.841Z,89.72
2018-08-18T06:26:43.789Z,89.87
2018-08-18T06:27:43.714Z,90.20
2018-08-18T06:28:43.648Z,89.34
2018-08-18T06:29:43.569Z,89.53
2018-08-18T06:30:43.509Z,88.95
2018-08-18T06:32:04.411Z,88.57
2018-08-18T06:32:43.366Z,88.38
2018-08-18T06:33:43.283Z,88.76
2018-08-18T06:34:43.272Z,88.47
2018-08-18T06:35:43.137Z,88.57
2018-08-18T06:36:43.075Z,88.18
2018-08-18T06:38:03.976Z,88.67
2018-08-18T06:38:42.932Z,88.09
2018-08-18T06:39:42.852Z,87.70
2018-08-18T06:40:42.784Z,86.65
2018-08-18T06:41:42.896Z,85.87
2018-08-18T06:42:42.645Z,85.87
2018-08-18T06:44:03.552Z,86.30
2018-08-18T06:44:42.501Z,86.40
2018-08-18T06:45:42.422Z,85.63
2018-08-18T06:46:42.359Z,84.86
2018-08-18T06:47:42.280Z,84.38
2018-08-18T06:48:42.288Z,84.28
2018-08-18T06:50:03.133Z,83.70
2018-08-18T06:50:42.067Z,83.70
2018-08-18T06:51:42.106Z,83.22
2018-08-18T06:52:41.916Z,83.12
2018-08-18T06:53:41.916Z,83.03
2018-08-18T06:54:41.811Z,83.16
2018-08-18T06:56:02.693Z,82.49
2018-08-18T06:56:41.636Z,83.36
2018-08-18T06:57:41.567Z,82.59
2018-08-18T06:58:41.502Z,82.20
2018-08-18T06:59:41.420Z,81.91
2018-08-18T07:00:41.341Z,81.72
2018-08-18T07:02:02.263Z,81.43
2018-08-18T07:02:41.197Z,81.91
2018-08-18T07:03:41.138Z,81.04
2018-08-18T07:04:41.052Z,80.85
2018-08-18T07:05:40.998Z,80.37
2018-08-18T07:06:40.921Z,80.94
2018-08-18T07:08:01.822Z,80.66
2018-08-18T07:08:40.775Z,80.27
2018-08-18T07:09:40.699Z,80.08
2018-08-18T07:10:40.632Z,80.18
2018-08-18T07:11:40.563Z,80.22
2018-08-18T07:12:40.492Z,79.64
2018-08-18T07:14:01.999Z,79.83
2018-08-18T07:14:40.342Z,80.02
2018-08-18T07:15:40.283Z,79.93
2018-08-18T07:16:40.209Z,79.25
2018-08-18T07:17:40.123Z,78.86
2018-08-18T07:18:40.060Z,78.67
2018-08-18T07:20:00.967Z,77.65
2018-08-18T07:20:39.921Z,78.33
2018-08-18T07:21:39.845Z,77.65
2018-08-18T07:22:39.777Z,78.23
2018-08-18T07:23:39.694Z,77.94
2018-08-18T07:24:39.675Z,78.13
2018-08-18T07:26:00.542Z,77.65
2018-08-18T07:26:39.587Z,77.65
2018-08-18T07:27:39.411Z,77.21
2018-08-18T07:28:39.452Z,76.92
2018-08-18T07:29:39.267Z,76.92
2018-08-18T07:30:39.308Z,76.15
2018-08-18T07:32:00.112Z,75.85
2018-08-18T07:32:39.114Z,75.85
2018-08-18T07:33:38.985Z,75.76
2018-08-18T07:34:38.924Z,75.37
2018-08-18T07:35:38.844Z,75.12
2018-08-18T07:36:38.835Z,75.12
2018-08-18T07:37:59.690Z,74.35
2018-08-18T07:38:38.747Z,74.73
2018-08-18T07:39:38.561Z,74.16
2018-08-18T07:40:40.606Z,73.48
2018-08-18T07:41:38.420Z,73.48
2018-08-18T07:42:38.358Z,73.38
2018-08-18T07:43:59.258Z,73.67
2018-08-18T07:44:40.322Z,73.09
2018-08-18T07:45:38.138Z,73.58
2018-08-18T07:46:38.191Z,73.09
2018-08-18T07:47:38.000Z,72.61
2018-08-18T07:48:37.995Z,72.61
2018-08-18T07:49:58.845Z,72.64
2018-08-18T07:50:37.802Z,72.84
2018-08-18T07:51:37.716Z,72.45
2018-08-18T07:52:37.714Z,72.45
2018-08-18T07:53:37.607Z,72.84
2018-08-18T07:54:37.527Z,72.74
2018-08-18T07:55:58.416Z,72.45
2018-08-18T07:56:37.433Z,72.36
2018-08-18T07:57:37.300Z,72.36
2018-08-18T07:58:37.244Z,71.62
2018-08-18T07:59:37.208Z,71.48
2018-08-18T08:00:37.155Z,72.10
2018-08-18T08:01:57.997Z,71.62
2018-08-18T08:02:36.961Z,71.62
2018-08-18T08:03:36.867Z,71.04
2018-08-18T08:04:36.872Z,71.04
2018-08-18T08:05:36.752Z,70.56
2018-08-18T08:06:36.682Z,70.65
2018-08-18T08:07:57.575Z,71.52
2018-08-18T08:08:36.594Z,71.36
2018-08-18T08:09:36.451Z,70.17
2018-08-18T08:10:36.384Z,70.07
2018-08-18T08:11:36.315Z,69.78
2018-08-18T08:12:36.321Z,70.59
2018-08-18T08:13:57.162Z,70.01
2018-08-18T08:14:36.103Z,69.92
2018-08-18T08:15:36.131Z,69.43
2018-08-18T08:16:35.961Z,69.04
2018-08-18T08:17:36.004Z,68.75
2018-08-18T08:18:35.820Z,68.95
2018-08-18T08:19:56.838Z,69.14
2018-08-18T08:20:35.680Z,69.43
2018-08-18T08:21:35.620Z,68.95
2018-08-18T08:22:35.546Z,68.88
2018-08-18T08:23:35.568Z,68.49
2018-08-18T08:24:35.407Z,68.49
2018-08-18T08:25:56.366Z,68.21
2018-08-18T08:26:35.265Z,67.18
2018-08-18T08:27:35.285Z,66.60
2018-08-18T08:28:35.127Z,67.08
2018-08-18T08:29:35.094Z,66.82
2018-08-18T08:30:34.984Z,66.53
2018-08-18T08:31:55.997Z,65.40
2018-08-18T08:32:34.848Z,65.20
2018-08-18T08:33:34.779Z,65.30
2018-08-18T08:34:34.829Z,65.30
2018-08-18T08:35:34.638Z,63.85
2018-08-18T08:36:34.580Z,63.65
2018-08-18T08:37:55.530Z,63.56
2018-08-18T08:38:34.543Z,63.37
2018-08-18T08:39:34.360Z,63.65
2018-08-18T08:40:34.352Z,64.43
2018-08-18T08:41:34.227Z,64.53
2018-08-18T08:42:34.164Z,64.82
2018-08-18T08:43:55.073Z,64.92
2018-08-18T08:44:34.032Z,65.01
2018-08-18T08:45:33.950Z,64.37
2018-08-18T08:46:33.981Z,64.53
2018-08-18T08:47:33.813Z,65.59
2018-08-18T08:48:33.758Z,65.01
2018-08-18T08:49:54.659Z,64.34
2018-08-18T08:50:33.700Z,64.07
2018-08-18T08:51:33.555Z,63.40
2018-08-18T08:52:33.508Z,63.49
2018-08-18T08:53:33.404Z,63.10
2018-08-18T08:54:33.459Z,65.14
2018-08-18T08:55:54.264Z,62.82
2018-08-18T08:56:33.230Z,62.43
2018-08-18T08:57:33.134Z,62.43
2018-08-18T08:58:33.140Z,61.88
2018-08-18T08:59:32.999Z,61.68
2018-08-18T09:00:32.948Z,61.10
2018-08-18T09:01:53.847Z,61.98
2018-08-18T09:02:32.860Z,63.07
2018-08-18T09:03:32.723Z,60.55
2018-08-18T09:04:32.771Z,60.55
2018-08-18T09:05:32.586Z,61.65
2018-08-18T09:06:32.581Z,60.77
2018-08-18T09:07:53.440Z,58.44
2018-08-18T09:08:32.494Z,58.76
2018-08-18T09:09:32.314Z,58.57
2018-08-18T09:10:32.299Z,58.28
2018-08-18T09:11:32.179Z,57.31
2018-08-18T09:12:32.210Z,56.72
2018-08-18T09:13:53.032Z,55.88
2018-08-18T09:14:32.019Z,56.36
2018-08-18T09:15:31.908Z,55.46
2018-08-18T09:16:31.928Z,55.39
2018-08-18T09:17:31.778Z,55.78
2018-08-18T09:18:31.738Z,54.78
2018-08-18T09:19:52.626Z,55.94
2018-08-18T09:20:31.649Z,55.49
2018-08-18T09:21:31.508Z,56.07
2018-08-18T09:22:31.463Z,55.78
2018-08-18T09:23:31.378Z,55.49
2018-08-18T09:24:31.366Z,56.46
2018-08-18T09:25:52.264Z,55.68
2018-08-18T09:26:31.361Z,55.00
2018-08-18T09:27:31.113Z,55.41
2018-08-18T09:28:31.089Z,54.64
2018-08-18T09:29:30.977Z,54.74
2018-08-18T09:30:31.004Z,54.96
2018-08-18T09:31:51.841Z,54.47
2018-08-18T09:32:30.811Z,56.51
2018-08-18T09:33:30.709Z,56.45
2018-08-18T09:34:30.719Z,55.96
2018-08-18T09:35:30.573Z,55.89
2018-08-18T09:36:30.539Z,55.69
2018-08-18T09:37:51.427Z,54.52
2018-08-18T09:38:30.441Z,52.50
2018-08-18T09:39:30.308Z,52.80
2018-08-18T09:40:30.350Z,52.31
2018-08-18T09:41:30.174Z,52.22
2018-08-18T09:42:30.156Z,51.61
2018-08-18T09:43:51.029Z,52.19
2018-08-18T09:44:30.069Z,52.38
2018-08-18T09:45:29.991Z,51.97
2018-08-18T09:46:29.880Z,52.94
2018-08-18T09:47:29.782Z,52.75
2018-08-18T09:48:29.791Z,52.84
2018-08-18T09:49:50.633Z,53.94
2018-08-18T09:50:29.700Z,53.75
2018-08-18T09:51:29.521Z,52.48
2018-08-18T09:52:29.508Z,51.31
2018-08-18T09:53:29.385Z,51.63
2018-08-18T09:54:29.424Z,52.50
2018-08-18T09:55:50.240Z,51.24
2018-08-18T09:56:29.228Z,51.82
2018-08-18T09:57:29.124Z,51.82
2018-08-18T09:58:29.140Z,51.04
2018-08-18T09:59:28.992Z,50.36
2018-08-18T10:00:28.953Z,50.46
2018-08-18T10:01:49.843Z,50.14
2018-08-18T10:02:28.858Z,50.04
2018-08-18T10:03:28.734Z,50.82
2018-08-18T10:04:28.769Z,50.82
2018-08-18T10:05:28.597Z,51.41
2018-08-18T10:06:28.590Z,51.21
2018-08-18T10:07:49.456Z,51.48
2018-08-18T10:08:28.490Z,51.39
2018-08-18T10:09:28.337Z,51.48
2018-08-18T10:10:28.297Z,52.36
2018-08-18T10:11:28.202Z,52.45
2018-08-18T10:12:28.209Z,52.06
2018-08-18T10:13:49.061Z,52.36
2018-08-18T10:14:28.120Z,52.97
2018-08-18T10:15:28.017Z,53.42
2018-08-18T10:16:27.933Z,53.04
2018-08-18T10:17:27.831Z,52.06
2018-08-18T10:18:27.840Z,52.55
2018-08-18T10:19:48.670Z,52.45
2018-08-18T10:20:27.659Z,52.55
2018-08-18T10:21:27.549Z,52.55
2018-08-18T10:22:27.558Z,53.23
2018-08-18T10:23:27.425Z,53.23
2018-08-18T10:24:27.369Z,52.65
2018-08-18T10:25:48.273Z,51.90
2018-08-18T10:26:27.285Z,51.19
2018-08-18T10:27:27.247Z,53.04
2018-08-18T10:28:27.191Z,53.04
2018-08-18T10:29:27.030Z,52.87
2018-08-18T10:30:27.002Z,53.04
2018-08-18T10:31:47.880Z,52.48
2018-08-18T10:32:26.910Z,52.38
2018-08-18T10:33:26.796Z,51.53
2018-08-18T10:34:26.729Z,51.34
2018-08-18T10:35:26.642Z,50.95
2018-08-18T10:36:26.634Z,50.36
2018-08-18T10:37:47.488Z,50.36
2018-08-18T10:38:26.545Z,50.56
2018-08-18T10:39:26.377Z,50.95
2018-08-18T10:40:26.350Z,51.34
2018-08-18T10:41:26.247Z,51.34
2018-08-18T10:42:26.263Z,51.26
2018-08-18T10:43:47.100Z,50.97
2018-08-18T10:44:26.072Z,49.02
2018-08-18T10:45:25.983Z,49.32
2018-08-18T10:46:25.980Z,49.61
2018-08-18T10:47:25.856Z,50.02
2018-08-18T10:48:25.894Z,51.09
2018-08-18T10:49:46.710Z,48.56
2018-08-18T10:50:25.710Z,47.51
2018-08-18T10:51:25.593Z,47.71
2018-08-18T10:52:25.611Z,48.39
2018-08-18T10:53:25.470Z,48.19
2018-08-18T10:54:25.445Z,47.78
2018-08-18T10:55:46.316Z,48.46
2018-08-18T10:56:25.335Z,47.88
2018-08-18T10:57:25.208Z,47.49
2018-08-18T10:58:25.265Z,48.36
2018-08-18T10:59:25.074Z,48.27
2018-08-18T11:00:25.052Z,50.21
2018-08-18T11:01:45.987Z,49.34
2018-08-18T11:02:24.961Z,49.15
2018-08-18T11:03:24.811Z,49.27
2018-08-18T11:04:24.772Z,49.46
2018-08-18T11:05:24.686Z,49.07
2018-08-18T11:06:24.684Z,48.10
2018-08-18T11:07:45.544Z,47.02
2018-08-18T11:08:24.598Z,46.63
2018-08-18T11:09:24.425Z,46.66
2018-08-18T11:10:24.402Z,46.56
2018-08-18T11:11:24.299Z,46.85
2018-08-18T11:12:24.311Z,46.88
2018-08-18T11:13:45.157Z,46.00
2018-08-18T11:14:24.128Z,46.39
2018-08-18T11:15:24.040Z,46.26
2018-08-18T11:16:24.040Z,45.78
2018-08-18T11:17:23.908Z,45.68
2018-08-18T11:18:23.943Z,46.46
2018-08-18T11:19:44.778Z,46.29
2018-08-18T11:20:23.757Z,45.48
2018-08-18T11:21:23.661Z,45.09
2018-08-18T11:22:23.663Z,45.09
2018-08-18T11:23:23.528Z,45.09
2018-08-18T11:24:23.575Z,45.39
2018-08-18T11:25:44.391Z,44.80
2018-08-18T11:26:23.383Z,44.41
2018-08-18T11:27:23.277Z,44.41
2018-08-18T11:28:23.376Z,44.70
2018-08-18T11:29:23.155Z,44.14
2018-08-18T11:30:23.081Z,44.14
2018-08-18T11:31:44.003Z,45.12
2018-08-18T11:32:23.019Z,44.34
2018-08-18T11:33:22.892Z,43.96
2018-08-18T11:34:23.519Z,43.96
2018-08-18T11:35:22.765Z,43.96
2018-08-18T11:36:22.735Z,42.71
2018-08-18T11:37:43.617Z,42.52
2018-08-18T11:38:22.651Z,42.81
2018-08-18T11:39:22.513Z,43.59
2018-08-18T11:40:22.557Z,43.40
2018-08-18T11:41:22.377Z,42.22
2018-08-18T11:42:22.368Z,40.95
2018-08-18T11:43:43.238Z,42.61
2018-08-18T11:44:22.277Z,41.64
2018-08-18T11:45:22.125Z,41.05
2018-08-18T11:46:22.086Z,41.35
2018-08-18T11:47:21.999Z,42.03
2018-08-18T11:48:21.999Z,42.52
2018-08-18T11:49:42.870Z,43.10
2018-08-18T11:50:21.910Z,43.01
2018-08-18T11:51:21.909Z,42.03
2018-08-18T11:52:21.716Z,42.22
2018-08-18T11:53:21.619Z,40.95
2018-08-18T11:54:21.630Z,42.22
2018-08-18T11:55:42.483Z,42.54
2018-08-18T11:56:21.540Z,42.05
2018-08-18T11:57:21.371Z,41.56
2018-08-18T11:58:21.351Z,42.54
2018-08-18T11:59:21.237Z,41.66
2018-08-18T12:00:21.269Z,41.97
2018-08-18T12:01:42.096Z,40.88
2018-08-18T12:02:21.068Z,39.80
2018-08-18T12:03:20.984Z,41.07
2018-08-18T12:04:20.985Z,40.97
2018-08-18T12:05:20.854Z,42.17
2018-08-18T12:06:20.887Z,42.07
2018-08-18T12:07:41.719Z,42.46
2018-08-18T12:08:20.699Z,42.17
2018-08-18T12:09:20.603Z,41.89
2018-08-18T12:10:20.611Z,39.53
2018-08-18T12:11:20.479Z,38.57
2018-08-18T12:12:20.521Z,38.45
2018-08-18T12:13:41.338Z,39.84
2018-08-18T12:14:20.331Z,40.33
2018-08-18T12:15:20.226Z,39.04
2018-08-18T12:16:20.239Z,39.33
2018-08-18T12:17:20.097Z,40.31
2018-08-18T12:18:20.150Z,41.09
2018-08-18T12:19:40.964Z,39.82
2018-08-18T12:20:19.974Z,40.21
2018-08-18T12:21:19.848Z,40.53
2018-08-18T12:22:19.872Z,39.72
2018-08-18T12:23:19.725Z,39.72
2018-08-18T12:24:19.682Z,39.72
2018-08-18T12:25:40.735Z,39.62
2018-08-18T12:26:19.542Z,39.53
2018-08-18T12:27:19.500Z,39.14
2018-08-18T12:28:19.414Z,39.92
2018-08-18T12:29:19.431Z,39.92
2018-08-18T12:30:19.282Z,39.14
2018-08-18T12:31:40.310Z,38.65
2018-08-18T12:32:19.162Z,38.24
2018-08-18T12:33:19.093Z,38.14
2018-08-18T12:34:19.133Z,38.63
2018-08-18T12:35:18.967Z,39.49
2018-08-18T12:36:18.979Z,39.10
2018-08-18T12:37:39.827Z,39.78
2018-08-18T12:38:18.855Z,41.05
2018-08-18T12:39:18.716Z,41.05
2018-08-18T12:40:18.719Z,40.25
2018-08-18T12:41:18.591Z,41.11
2018-08-18T12:42:18.635Z,42.09
2018-08-18T12:43:39.547Z,42.38
2018-08-18T12:44:18.408Z,41.41
2018-08-18T12:45:18.337Z,43.57
2018-08-18T12:46:18.289Z,43.28
2018-08-18T12:47:18.221Z,42.32
2018-08-18T12:48:18.159Z,41.15
2018-08-18T12:49:39.158Z,42.25
2018-08-18T12:50:18.123Z,42.35
2018-08-18T12:51:17.963Z,40.39